sensor_id;sensor_type;location;lat;lon;timestamp;pressure;altitude;pressure_sealevel;temperature
28305;BMP280;15569;42.652;23.040;2024-01-06T00:00:46;92737.06;;;11.53
28305;BMP280;15569;42.652;23.040;2024-01-06T00:03:14;92737.78;;;11.53
28305;BMP280;15569;42.652;23.040;2024-01-06T00:05:39;92744.56;;;11.52
28305;BMP280;15569;42.652;23.040;2024-01-06T00:08:05;92736.31;;;11.50
28305;BMP280;15569;42.652;23.040;2024-01-06T00:10:31;92739.03;;;11.50
28305;BMP280;15569;42.652;23.040;2024-01-06T00:12:56;92731.03;;;11.39
28305;BMP280;15569;42.652;23.040;2024-01-06T00:15:22;92755.50;;;11.54
28305;BMP280;15569;42.652;23.040;2024-01-06T00:17:48;92740.16;;;11.45
28305;BMP280;15569;42.652;23.040;2024-01-06T00:20:13;92744.34;;;11.48
28305;BMP280;15569;42.652;23.040;2024-01-06T00:22:39;92737.25;;;11.41
28305;BMP280;15569;42.652;23.040;2024-01-06T00:25:04;92736.66;;;11.27
28305;BMP280;15569;42.652;23.040;2024-01-06T00:27:30;92744.91;;;11.29
28305;BMP280;15569;42.652;23.040;2024-01-06T00:29:55;92722.59;;;11.17
28305;BMP280;15569;42.652;23.040;2024-01-06T00:32:21;92746.91;;;11.29
28305;BMP280;15569;42.652;23.040;2024-01-06T00:34:46;92748.75;;;11.24
28305;BMP280;15569;42.652;23.040;2024-01-06T00:37:12;92745.41;;;11.26
28305;BMP280;15569;42.652;23.040;2024-01-06T00:39:38;92737.00;;;11.20
28305;BMP280;15569;42.652;23.040;2024-01-06T00:42:03;92741.81;;;11.05
28305;BMP280;15569;42.652;23.040;2024-01-06T00:44:29;92751.72;;;10.99
28305;BMP280;15569;42.652;23.040;2024-01-06T00:46:54;92746.63;;;11.07
28305;BMP280;15569;42.652;23.040;2024-01-06T00:49:19;92748.22;;;11.12
28305;BMP280;15569;42.652;23.040;2024-01-06T00:51:45;92748.66;;;11.22
28305;BMP280;15569;42.652;23.040;2024-01-06T00:54:10;92744.72;;;11.25
28305;BMP280;15569;42.652;23.040;2024-01-06T00:56:36;92732.25;;;11.20
28305;BMP280;15569;42.652;23.040;2024-01-06T00:59:01;92733.75;;;11.23
28305;BMP280;15569;42.652;23.040;2024-01-06T01:01:27;92734.44;;;11.24
28305;BMP280;15569;42.652;23.040;2024-01-06T01:03:52;92731.38;;;11.00
28305;BMP280;15569;42.652;23.040;2024-01-06T01:06:17;92734.25;;;11.04
28305;BMP280;15569;42.652;23.040;2024-01-06T01:08:43;92729.59;;;11.06
28305;BMP280;15569;42.652;23.040;2024-01-06T01:11:08;92723.56;;;11.08
28305;BMP280;15569;42.652;23.040;2024-01-06T01:13:34;92720.66;;;11.04
28305;BMP280;15569;42.652;23.040;2024-01-06T01:15:59;92718.91;;;11.11
28305;BMP280;15569;42.652;23.040;2024-01-06T01:18:24;92730.50;;;11.11
28305;BMP280;15569;42.652;23.040;2024-01-06T01:20:50;92721.13;;;11.14
28305;BMP280;15569;42.652;23.040;2024-01-06T01:23:15;92715.59;;;11.12
28305;BMP280;15569;42.652;23.040;2024-01-06T01:25:40;92715.31;;;11.06
28305;BMP280;15569;42.652;23.040;2024-01-06T01:28:06;92722.25;;;11.09
28305;BMP280;15569;42.652;23.040;2024-01-06T01:30:31;92716.09;;;11.08
28305;BMP280;15569;42.652;23.040;2024-01-06T01:32:58;92699.44;;;11.00
28305;BMP280;15569;42.652;23.040;2024-01-06T01:35:23;92705.94;;;11.09
28305;BMP280;15569;42.652;23.040;2024-01-06T01:37:48;92707.31;;;11.10
28305;BMP280;15569;42.652;23.040;2024-01-06T01:40:14;92695.13;;;11.11
28305;BMP280;15569;42.652;23.040;2024-01-06T01:42:42;92695.56;;;11.05
28305;BMP280;15569;42.652;23.040;2024-01-06T01:45:07;92676.78;;;10.96
28305;BMP280;15569;42.652;23.040;2024-01-06T01:47:33;92700.47;;;11.09
28305;BMP280;15569;42.652;23.040;2024-01-06T01:49:58;92695.94;;;11.14
28305;BMP280;15569;42.652;23.040;2024-01-06T01:52:24;92687.75;;;11.14
28305;BMP280;15569;42.652;23.040;2024-01-06T01:54:50;92696.69;;;11.16
28305;BMP280;15569;42.652;23.040;2024-01-06T01:57:16;92697.69;;;11.07
28305;BMP280;15569;42.652;23.040;2024-01-06T01:59:42;92695.72;;;11.09
28305;BMP280;15569;42.652;23.040;2024-01-06T02:02:08;92688.91;;;11.08
28305;BMP280;15569;42.652;23.040;2024-01-06T02:04:34;92686.47;;;11.15
28305;BMP280;15569;42.652;23.040;2024-01-06T02:06:59;92676.19;;;11.13
28305;BMP280;15569;42.652;23.040;2024-01-06T02:09:25;92673.13;;;11.21
28305;BMP280;15569;42.652;23.040;2024-01-06T02:11:54;92669.09;;;11.06
28305;BMP280;15569;42.652;23.040;2024-01-06T02:14:19;92680.38;;;11.16
28305;BMP280;15569;42.652;23.040;2024-01-06T02:16:44;92676.09;;;11.27
28305;BMP280;15569;42.652;23.040;2024-01-06T02:19:11;92672.16;;;11.30
28305;BMP280;15569;42.652;23.040;2024-01-06T02:21:41;92662.03;;;11.32
28305;BMP280;15569;42.652;23.040;2024-01-06T02:24:07;92661.88;;;11.28
28305;BMP280;15569;42.652;23.040;2024-01-06T02:26:32;92657.84;;;11.29
28305;BMP280;15569;42.652;23.040;2024-01-06T02:28:58;92652.56;;;11.18
28305;BMP280;15569;42.652;23.040;2024-01-06T02:31:23;92648.00;;;11.22
28305;BMP280;15569;42.652;23.040;2024-01-06T02:33:48;92640.81;;;11.29
28305;BMP280;15569;42.652;23.040;2024-01-06T02:36:14;92631.16;;;11.26
28305;BMP280;15569;42.652;23.040;2024-01-06T02:38:39;92632.03;;;11.30
28305;BMP280;15569;42.652;23.040;2024-01-06T02:41:04;92638.84;;;11.31
28305;BMP280;15569;42.652;23.040;2024-01-06T02:43:30;92635.81;;;11.07
28305;BMP280;15569;42.652;23.040;2024-01-06T02:45:55;92619.34;;;10.88
28305;BMP280;15569;42.652;23.040;2024-01-06T02:48:20;92615.91;;;10.87
28305;BMP280;15569;42.652;23.040;2024-01-06T02:50:46;92618.00;;;11.04
28305;BMP280;15569;42.652;23.040;2024-01-06T02:53:11;92617.31;;;11.04
28305;BMP280;15569;42.652;23.040;2024-01-06T02:55:38;92622.91;;;11.08
28305;BMP280;15569;42.652;23.040;2024-01-06T02:58:03;92626.41;;;11.11
28305;BMP280;15569;42.652;23.040;2024-01-06T03:00:29;92623.25;;;11.16
28305;BMP280;15569;42.652;23.040;2024-01-06T03:02:54;92618.09;;;11.22
28305;BMP280;15569;42.652;23.040;2024-01-06T03:05:19;92618.72;;;11.21
28305;BMP280;15569;42.652;23.040;2024-01-06T03:07:45;92622.22;;;11.23
28305;BMP280;15569;42.652;23.040;2024-01-06T03:10:10;92623.91;;;11.15
28305;BMP280;15569;42.652;23.040;2024-01-06T03:12:35;92616.81;;;10.76
28305;BMP280;15569;42.652;23.040;2024-01-06T03:15:01;92622.31;;;10.78
28305;BMP280;15569;42.652;23.040;2024-01-06T03:17:26;92612.22;;;10.81
28305;BMP280;15569;42.652;23.040;2024-01-06T03:19:54;92610.72;;;10.93
28305;BMP280;15569;42.652;23.040;2024-01-06T03:22:19;92612.22;;;10.81
28305;BMP280;15569;42.652;23.040;2024-01-06T03:24:45;92606.09;;;10.65
28305;BMP280;15569;42.652;23.040;2024-01-06T03:27:10;92604.75;;;10.66
28305;BMP280;15569;42.652;23.040;2024-01-06T03:29:35;92604.94;;;10.70
28305;BMP280;15569;42.652;23.040;2024-01-06T03:32:01;92608.00;;;10.78
28305;BMP280;15569;42.652;23.040;2024-01-06T03:34:26;92594.97;;;10.59
28305;BMP280;15569;42.652;23.040;2024-01-06T03:36:52;92594.81;;;10.25
28305;BMP280;15569;42.652;23.040;2024-01-06T03:39:17;92597.38;;;10.37
28305;BMP280;15569;42.652;23.040;2024-01-06T03:41:42;92600.25;;;10.25
28305;BMP280;15569;42.652;23.040;2024-01-06T03:44:08;92581.78;;;10.08
28305;BMP280;15569;42.652;23.040;2024-01-06T03:46:35;92591.84;;;10.19
28305;BMP280;15569;42.652;23.040;2024-01-06T03:49:00;92592.38;;;10.32
28305;BMP280;15569;42.652;23.040;2024-01-06T03:51:26;92602.28;;;10.41
28305;BMP280;15569;42.652;23.040;2024-01-06T03:53:51;92589.13;;;10.19
28305;BMP280;15569;42.652;23.040;2024-01-06T03:56:16;92578.53;;;10.25
28305;BMP280;15569;42.652;23.040;2024-01-06T03:58:42;92574.41;;;10.40
28305;BMP280;15569;42.652;23.040;2024-01-06T04:01:07;92592.72;;;10.40
28305;BMP280;15569;42.652;23.040;2024-01-06T04:03:33;92579.22;;;10.42
28305;BMP280;15569;42.652;23.040;2024-01-06T04:05:58;92579.88;;;10.56
28305;BMP280;15569;42.652;23.040;2024-01-06T04:08:23;92587.19;;;10.53
28305;BMP280;15569;42.652;23.040;2024-01-06T04:10:49;92581.97;;;10.12
28305;BMP280;15569;42.652;23.040;2024-01-06T04:13:15;92586.97;;;9.89
28305;BMP280;15569;42.652;23.040;2024-01-06T04:15:40;92588.72;;;9.82
28305;BMP280;15569;42.652;23.040;2024-01-06T04:18:06;92598.38;;;9.85
28305;BMP280;15569;42.652;23.040;2024-01-06T04:20:32;92592.50;;;9.91
28305;BMP280;15569;42.652;23.040;2024-01-06T04:22:58;92574.88;;;9.76
28305;BMP280;15569;42.652;23.040;2024-01-06T04:25:23;92561.34;;;9.49
28305;BMP280;15569;42.652;23.040;2024-01-06T04:27:48;92568.25;;;9.52
28305;BMP280;15569;42.652;23.040;2024-01-06T04:30:15;92588.56;;;9.65
28305;BMP280;15569;42.652;23.040;2024-01-06T04:32:41;92589.91;;;9.79
28305;BMP280;15569;42.652;23.040;2024-01-06T04:35:07;92603.34;;;9.75
28305;BMP280;15569;42.652;23.040;2024-01-06T04:37:32;92595.69;;;9.58
28305;BMP280;15569;42.652;23.040;2024-01-06T04:39:58;92586.88;;;9.58
28305;BMP280;15569;42.652;23.040;2024-01-06T04:42:24;92600.06;;;9.79
28305;BMP280;15569;42.652;23.040;2024-01-06T04:44:50;92586.81;;;9.85
28305;BMP280;15569;42.652;23.040;2024-01-06T04:47:15;92596.63;;;9.92
28305;BMP280;15569;42.652;23.040;2024-01-06T04:49:40;92605.81;;;10.14
28305;BMP280;15569;42.652;23.040;2024-01-06T04:52:06;92602.34;;;10.27
28305;BMP280;15569;42.652;23.040;2024-01-06T04:54:31;92602.38;;;10.43
28305;BMP280;15569;42.652;23.040;2024-01-06T04:56:58;92593.06;;;10.32
28305;BMP280;15569;42.652;23.040;2024-01-06T04:59:24;92591.06;;;10.03
28305;BMP280;15569;42.652;23.040;2024-01-06T05:01:50;92584.88;;;9.87
28305;BMP280;15569;42.652;23.040;2024-01-06T05:04:16;92585.97;;;9.96
28305;BMP280;15569;42.652;23.040;2024-01-06T05:06:41;92564.78;;;9.92
28305;BMP280;15569;42.652;23.040;2024-01-06T05:09:07;92576.53;;;10.12
28305;BMP280;15569;42.652;23.040;2024-01-06T05:11:32;92576.50;;;9.97
28305;BMP280;15569;42.652;23.040;2024-01-06T05:13:58;92563.34;;;9.91
28305;BMP280;15569;42.652;23.040;2024-01-06T05:16:23;92566.91;;;10.09
28305;BMP280;15569;42.652;23.040;2024-01-06T05:18:48;92564.19;;;10.09
28305;BMP280;15569;42.652;23.040;2024-01-06T05:21:14;92562.38;;;10.14
28305;BMP280;15569;42.652;23.040;2024-01-06T05:23:39;92563.13;;;10.01
28305;BMP280;15569;42.652;23.040;2024-01-06T05:26:05;92561.69;;;9.84
28305;BMP280;15569;42.652;23.040;2024-01-06T05:28:31;92561.97;;;10.06
28305;BMP280;15569;42.652;23.040;2024-01-06T05:30:56;92544.66;;;10.13
28305;BMP280;15569;42.652;23.040;2024-01-06T05:33:22;92547.13;;;10.22
28305;BMP280;15569;42.652;23.040;2024-01-06T05:35:47;92555.34;;;10.09
28305;BMP280;15569;42.652;23.040;2024-01-06T05:38:12;92548.63;;;9.96
28305;BMP280;15569;42.652;23.040;2024-01-06T05:40:38;92551.13;;;10.06
28305;BMP280;15569;42.652;23.040;2024-01-06T05:43:03;92547.47;;;10.15
28305;BMP280;15569;42.652;23.040;2024-01-06T05:45:29;92541.59;;;10.20
28305;BMP280;15569;42.652;23.040;2024-01-06T05:47:54;92545.25;;;10.41
28305;BMP280;15569;42.652;23.040;2024-01-06T05:50:19;92538.53;;;10.28
28305;BMP280;15569;42.652;23.040;2024-01-06T05:52:45;92553.44;;;10.27
28305;BMP280;15569;42.652;23.040;2024-01-06T05:55:12;92539.97;;;10.29
28305;BMP280;15569;42.652;23.040;2024-01-06T05:57:38;92550.09;;;10.13
28305;BMP280;15569;42.652;23.040;2024-01-06T06:00:07;92553.41;;;10.11
28305;BMP280;15569;42.652;23.040;2024-01-06T06:02:32;92557.03;;;9.87
28305;BMP280;15569;42.652;23.040;2024-01-06T06:04:58;92549.63;;;9.74
28305;BMP280;15569;42.652;23.040;2024-01-06T06:07:23;92558.47;;;9.74
28305;BMP280;15569;42.652;23.040;2024-01-06T06:09:49;92562.72;;;9.64
28305;BMP280;15569;42.652;23.040;2024-01-06T06:12:15;92552.84;;;9.41
28305;BMP280;15569;42.652;23.040;2024-01-06T06:14:40;92532.53;;;9.42
28305;BMP280;15569;42.652;23.040;2024-01-06T06:17:05;92519.06;;;9.44
28305;BMP280;15569;42.652;23.040;2024-01-06T06:19:31;92538.97;;;9.78
28305;BMP280;15569;42.652;23.040;2024-01-06T06:21:56;92551.56;;;10.00
28305;BMP280;15569;42.652;23.040;2024-01-06T06:24:22;92542.66;;;10.13
28305;BMP280;15569;42.652;23.040;2024-01-06T06:26:47;92538.75;;;10.32
28305;BMP280;15569;42.652;23.040;2024-01-06T06:29:13;92537.25;;;10.29
28305;BMP280;15569;42.652;23.040;2024-01-06T06:31:38;92537.06;;;10.25
28305;BMP280;15569;42.652;23.040;2024-01-06T06:34:04;92546.63;;;10.42
28305;BMP280;15569;42.652;23.040;2024-01-06T06:36:29;92548.13;;;10.60
28305;BMP280;15569;42.652;23.040;2024-01-06T06:38:55;92551.72;;;10.65
28305;BMP280;15569;42.652;23.040;2024-01-06T06:41:23;92546.19;;;10.63
28305;BMP280;15569;42.652;23.040;2024-01-06T06:43:48;92557.78;;;10.03
28305;BMP280;15569;42.652;23.040;2024-01-06T06:46:13;92556.22;;;10.13
28305;BMP280;15569;42.652;23.040;2024-01-06T06:48:39;92564.13;;;10.39
28305;BMP280;15569;42.652;23.040;2024-01-06T06:51:05;92560.72;;;10.54
28305;BMP280;15569;42.652;23.040;2024-01-06T06:53:30;92554.81;;;10.12
28305;BMP280;15569;42.652;23.040;2024-01-06T06:55:56;92550.13;;;10.28
28305;BMP280;15569;42.652;23.040;2024-01-06T06:58:21;92562.44;;;10.61
28305;BMP280;15569;42.652;23.040;2024-01-06T07:00:46;92564.94;;;10.57
28305;BMP280;15569;42.652;23.040;2024-01-06T07:03:12;92554.88;;;10.75
28305;BMP280;15569;42.652;23.040;2024-01-06T07:05:39;92549.09;;;10.82
28305;BMP280;15569;42.652;23.040;2024-01-06T07:08:04;92547.38;;;11.06
28305;BMP280;15569;42.652;23.040;2024-01-06T07:10:30;92551.50;;;11.07
28305;BMP280;15569;42.652;23.040;2024-01-06T07:12:55;92554.63;;;11.33
28305;BMP280;15569;42.652;23.040;2024-01-06T07:15:20;92541.28;;;11.24
28305;BMP280;15569;42.652;23.040;2024-01-06T07:17:46;92541.09;;;11.35
28305;BMP280;15569;42.652;23.040;2024-01-06T07:20:12;92539.72;;;11.52
28305;BMP280;15569;42.652;23.040;2024-01-06T07:22:37;92540.84;;;11.29
28305;BMP280;15569;42.652;23.040;2024-01-06T07:25:03;92537.25;;;10.91
28305;BMP280;15569;42.652;23.040;2024-01-06T07:27:28;92536.84;;;11.15
28305;BMP280;15569;42.652;23.040;2024-01-06T07:29:54;92542.03;;;11.08
28305;BMP280;15569;42.652;23.040;2024-01-06T07:32:22;92553.63;;;10.93
28305;BMP280;15569;42.652;23.040;2024-01-06T07:34:47;92544.50;;;10.71
28305;BMP280;15569;42.652;23.040;2024-01-06T07:37:13;92555.81;;;10.97
28305;BMP280;15569;42.652;23.040;2024-01-06T07:39:38;92544.09;;;10.77
28305;BMP280;15569;42.652;23.040;2024-01-06T07:42:04;92556.59;;;11.15
28305;BMP280;15569;42.652;23.040;2024-01-06T07:44:29;92534.91;;;11.01
28305;BMP280;15569;42.652;23.040;2024-01-06T07:46:54;92553.69;;;11.44
28305;BMP280;15569;42.652;23.040;2024-01-06T07:49:20;92560.84;;;11.53
28305;BMP280;15569;42.652;23.040;2024-01-06T07:51:45;92554.13;;;11.21
28305;BMP280;15569;42.652;23.040;2024-01-06T07:54:11;92552.00;;;11.20
28305;BMP280;15569;42.652;23.040;2024-01-06T07:56:37;92548.13;;;11.25
28305;BMP280;15569;42.652;23.040;2024-01-06T07:59:03;92548.25;;;11.44
28305;BMP280;15569;42.652;23.040;2024-01-06T08:01:29;92541.94;;;11.40
28305;BMP280;15569;42.652;23.040;2024-01-06T08:03:55;92538.31;;;11.18
28305;BMP280;15569;42.652;23.040;2024-01-06T08:06:20;92538.59;;;11.41
28305;BMP280;15569;42.652;23.040;2024-01-06T08:08:46;92537.09;;;11.71
28305;BMP280;15569;42.652;23.040;2024-01-06T08:11:12;92543.91;;;11.55
28305;BMP280;15569;42.652;23.040;2024-01-06T08:13:37;92544.38;;;11.84
28305;BMP280;15569;42.652;23.040;2024-01-06T08:16:03;92537.06;;;12.07
28305;BMP280;15569;42.652;23.040;2024-01-06T08:18:29;92521.72;;;12.15
28305;BMP280;15569;42.652;23.040;2024-01-06T08:20:54;92543.03;;;12.21
28305;BMP280;15569;42.652;23.040;2024-01-06T08:23:20;92540.97;;;12.39
28305;BMP280;15569;42.652;23.040;2024-01-06T08:25:46;92539.72;;;12.42
28305;BMP280;15569;42.652;23.040;2024-01-06T08:28:11;92546.81;;;12.49
28305;BMP280;15569;42.652;23.040;2024-01-06T08:30:37;92538.09;;;12.72
28305;BMP280;15569;42.652;23.040;2024-01-06T08:33:03;92536.03;;;12.92
28305;BMP280;15569;42.652;23.040;2024-01-06T08:35:28;92555.34;;;12.98
28305;BMP280;15569;42.652;23.040;2024-01-06T08:37:54;92547.88;;;12.99
28305;BMP280;15569;42.652;23.040;2024-01-06T08:40:19;92541.38;;;12.88
28305;BMP280;15569;42.652;23.040;2024-01-06T08:42:44;92544.28;;;12.94
28305;BMP280;15569;42.652;23.040;2024-01-06T08:45:10;92541.34;;;13.08
28305;BMP280;15569;42.652;23.040;2024-01-06T08:47:35;92542.34;;;13.18
28305;BMP280;15569;42.652;23.040;2024-01-06T08:50:00;92534.88;;;13.19
28305;BMP280;15569;42.652;23.040;2024-01-06T08:52:26;92544.59;;;13.43
28305;BMP280;15569;42.652;23.040;2024-01-06T08:54:51;92540.56;;;13.46
28305;BMP280;15569;42.652;23.040;2024-01-06T08:57:16;92530.22;;;13.43
28305;BMP280;15569;42.652;23.040;2024-01-06T08:59:42;92533.84;;;13.49
28305;BMP280;15569;42.652;23.040;2024-01-06T09:02:10;92521.78;;;13.57
28305;BMP280;15569;42.652;23.040;2024-01-06T09:04:36;92527.31;;;13.59
28305;BMP280;15569;42.652;23.040;2024-01-06T09:07:01;92525.66;;;13.49
28305;BMP280;15569;42.652;23.040;2024-01-06T09:09:26;92529.56;;;13.66
28305;BMP280;15569;42.652;23.040;2024-01-06T09:11:53;92524.63;;;13.82
28305;BMP280;15569;42.652;23.040;2024-01-06T09:14:19;92511.13;;;13.88
28305;BMP280;15569;42.652;23.040;2024-01-06T09:16:44;92516.31;;;14.02
28305;BMP280;15569;42.652;23.040;2024-01-06T09:19:10;92501.16;;;13.97
28305;BMP280;15569;42.652;23.040;2024-01-06T09:21:35;92506.09;;;14.02
28305;BMP280;15569;42.652;23.040;2024-01-06T09:24:01;92507.56;;;13.84
28305;BMP280;15569;42.652;23.040;2024-01-06T09:26:31;92501.69;;;14.15
28305;BMP280;15569;42.652;23.040;2024-01-06T09:28:57;92491.72;;;14.25
28305;BMP280;15569;42.652;23.040;2024-01-06T09:31:22;92496.50;;;14.25
28305;BMP280;15569;42.652;23.040;2024-01-06T09:33:49;92486.16;;;14.21
28305;BMP280;15569;42.652;23.040;2024-01-06T09:36:15;92485.56;;;14.25
28305;BMP280;15569;42.652;23.040;2024-01-06T09:38:40;92482.13;;;14.24
28305;BMP280;15569;42.652;23.040;2024-01-06T09:41:06;92482.88;;;14.27
28305;BMP280;15569;42.652;23.040;2024-01-06T09:43:31;92467.81;;;14.26
28305;BMP280;15569;42.652;23.040;2024-01-06T09:46:05;92473.44;;;14.32
28305;BMP280;15569;42.652;23.040;2024-01-06T09:48:34;92476.19;;;14.32
28305;BMP280;15569;42.652;23.040;2024-01-06T09:51:02;92472.72;;;14.29
28305;BMP280;15569;42.652;23.040;2024-01-06T09:53:33;92465.84;;;14.28
28305;BMP280;15569;42.652;23.040;2024-01-06T09:56:00;92436.25;;;14.21
28305;BMP280;15569;42.652;23.040;2024-01-06T09:58:25;92467.56;;;14.42
28305;BMP280;15569;42.652;23.040;2024-01-06T10:00:56;92453.38;;;14.47
28305;BMP280;15569;42.652;23.040;2024-01-06T10:03:21;92450.66;;;14.49
28305;BMP280;15569;42.652;23.040;2024-01-06T10:05:46;92453.50;;;14.53
28305;BMP280;15569;42.652;23.040;2024-01-06T10:08:13;92441.19;;;14.52
28305;BMP280;15569;42.652;23.040;2024-01-06T10:10:39;92444.88;;;14.63
28305;BMP280;15569;42.652;23.040;2024-01-06T10:13:04;92422.09;;;14.54
28305;BMP280;15569;42.652;23.040;2024-01-06T10:15:31;92439.41;;;14.63
28305;BMP280;15569;42.652;23.040;2024-01-06T10:17:56;92432.63;;;14.64
28305;BMP280;15569;42.652;23.040;2024-01-06T10:20:22;92437.53;;;14.44
28305;BMP280;15569;42.652;23.040;2024-01-06T10:22:47;92427.72;;;14.60
28305;BMP280;15569;42.652;23.040;2024-01-06T10:25:13;92422.94;;;14.61
28305;BMP280;15569;42.652;23.040;2024-01-06T10:27:41;92417.81;;;14.47
28305;BMP280;15569;42.652;23.040;2024-01-06T10:30:07;92411.34;;;14.62
28305;BMP280;15569;42.652;23.040;2024-01-06T10:32:34;92407.22;;;14.61
28305;BMP280;15569;42.652;23.040;2024-01-06T10:35:01;92408.78;;;14.68
28305;BMP280;15569;42.652;23.040;2024-01-06T10:37:28;92399.16;;;14.67
28305;BMP280;15569;42.652;23.040;2024-01-06T10:42:36;92399.09;;;14.65
28305;BMP280;15569;42.652;23.040;2024-01-06T10:45:02;92396.44;;;14.67
28305;BMP280;15569;42.652;23.040;2024-01-06T10:47:29;92394.84;;;14.58
28305;BMP280;15569;42.652;23.040;2024-01-06T10:49:59;92381.81;;;14.57
28305;BMP280;15569;42.652;23.040;2024-01-06T10:52:26;92378.59;;;14.64
28305;BMP280;15569;42.652;23.040;2024-01-06T10:54:53;92378.38;;;14.56
28305;BMP280;15569;42.652;23.040;2024-01-06T10:57:19;92370.78;;;14.53
28305;BMP280;15569;42.652;23.040;2024-01-06T10:59:49;92362.53;;;14.51
28305;BMP280;15569;42.652;23.040;2024-01-06T11:02:15;92368.44;;;14.41
28305;BMP280;15569;42.652;23.040;2024-01-06T11:04:43;92372.06;;;14.22
28305;BMP280;15569;42.652;23.040;2024-01-06T11:07:09;92369.94;;;13.95
28305;BMP280;15569;42.652;23.040;2024-01-06T11:09:37;92355.16;;;14.29
28305;BMP280;15569;42.652;23.040;2024-01-06T11:12:04;92346.09;;;14.23
28305;BMP280;15569;42.652;23.040;2024-01-06T11:14:36;92353.66;;;14.52
28305;BMP280;15569;42.652;23.040;2024-01-06T11:17:03;92348.53;;;14.66
28305;BMP280;15569;42.652;23.040;2024-01-06T11:24:47;92326.25;;;15.07
28305;BMP280;15569;42.652;23.040;2024-01-06T11:27:27;92302.72;;;15.28
28305;BMP280;15569;42.652;23.040;2024-01-06T11:29:59;92305.47;;;15.28
28305;BMP280;15569;42.652;23.040;2024-01-06T11:32:33;92310.25;;;15.27
28305;BMP280;15569;42.652;23.040;2024-01-06T11:40:02;92295.56;;;15.13
28305;BMP280;15569;42.652;23.040;2024-01-06T11:42:32;92287.41;;;15.15
28305;BMP280;15569;42.652;23.040;2024-01-06T11:45:04;92289.47;;;15.16
28305;BMP280;15569;42.652;23.040;2024-01-06T11:47:34;92284.09;;;15.20
28305;BMP280;15569;42.652;23.040;2024-01-06T11:50:00;92282.84;;;15.25
28305;BMP280;15569;42.652;23.040;2024-01-06T11:52:30;92278.63;;;14.31
28305;BMP280;15569;42.652;23.040;2024-01-06T11:54:56;92277.72;;;14.21
28305;BMP280;15569;42.652;23.040;2024-01-06T11:57:22;92264.44;;;13.84
28305;BMP280;15569;42.652;23.040;2024-01-06T11:59:48;92273.44;;;13.88
28305;BMP280;15569;42.652;23.040;2024-01-06T12:02:17;92266.69;;;13.66
28305;BMP280;15569;42.652;23.040;2024-01-06T12:04:48;92253.19;;;13.46
28305;BMP280;15569;42.652;23.040;2024-01-06T12:07:15;92267.97;;;13.13
28305;BMP280;15569;42.652;23.040;2024-01-06T12:09:40;92251.16;;;13.21
28305;BMP280;15569;42.652;23.040;2024-01-06T12:12:06;92247.56;;;13.40
28305;BMP280;15569;42.652;23.040;2024-01-06T12:14:32;92247.47;;;13.36
28305;BMP280;15569;42.652;23.040;2024-01-06T12:17:00;92264.53;;;13.86
28305;BMP280;15569;42.652;23.040;2024-01-06T12:19:30;92250.16;;;13.85
28305;BMP280;15569;42.652;23.040;2024-01-06T12:21:56;92239.19;;;14.11
28305;BMP280;15569;42.652;23.040;2024-01-06T12:24:21;92244.28;;;14.52
28305;BMP280;15569;42.652;23.040;2024-01-06T12:26:47;92242.13;;;14.19
28305;BMP280;15569;42.652;23.040;2024-01-06T12:29:13;92245.09;;;14.29
28305;BMP280;15569;42.652;23.040;2024-01-06T12:31:40;92246.19;;;14.18
28305;BMP280;15569;42.652;23.040;2024-01-06T12:34:06;92253.94;;;15.52
28305;BMP280;15569;42.652;23.040;2024-01-06T12:36:34;92246.88;;;17.70
28305;BMP280;15569;42.652;23.040;2024-01-06T12:39:00;92236.84;;;18.94
28305;BMP280;15569;42.652;23.040;2024-01-06T12:41:27;92223.38;;;19.99
28305;BMP280;15569;42.652;23.040;2024-01-06T12:43:53;92209.53;;;20.47
28305;BMP280;15569;42.652;23.040;2024-01-06T12:46:18;92219.78;;;18.18
28305;BMP280;15569;42.652;23.040;2024-01-06T12:48:44;92221.97;;;20.16
28305;BMP280;15569;42.652;23.040;2024-01-06T12:51:09;92208.03;;;18.07
28305;BMP280;15569;42.652;23.040;2024-01-06T12:53:34;92218.69;;;17.69
28305;BMP280;15569;42.652;23.040;2024-01-06T12:56:00;92203.00;;;17.82
28305;BMP280;15569;42.652;23.040;2024-01-06T12:58:26;92205.44;;;20.08
28305;BMP280;15569;42.652;23.040;2024-01-06T13:00:51;92220.34;;;22.28
28305;BMP280;15569;42.652;23.040;2024-01-06T13:03:16;92213.25;;;21.63
28305;BMP280;15569;42.652;23.040;2024-01-06T13:05:42;92203.38;;;23.27
28305;BMP280;15569;42.652;23.040;2024-01-06T13:08:07;92228.84;;;23.40
28305;BMP280;15569;42.652;23.040;2024-01-06T13:10:33;92207.78;;;23.59
28305;BMP280;15569;42.652;23.040;2024-01-06T13:12:59;92223.69;;;23.62
28305;BMP280;15569;42.652;23.040;2024-01-06T13:15:25;92198.22;;;25.08
28305;BMP280;15569;42.652;23.040;2024-01-06T13:17:50;92201.81;;;23.38
28305;BMP280;15569;42.652;23.040;2024-01-06T13:20:16;92191.28;;;25.07
28305;BMP280;15569;42.652;23.040;2024-01-06T13:22:42;92194.94;;;24.65
28305;BMP280;15569;42.652;23.040;2024-01-06T13:25:07;92197.59;;;24.33
28305;BMP280;15569;42.652;23.040;2024-01-06T13:27:34;92192.78;;;22.87
28305;BMP280;15569;42.652;23.040;2024-01-06T13:29:59;92201.81;;;23.38
28305;BMP280;15569;42.652;23.040;2024-01-06T13:32:25;92168.06;;;22.69
28305;BMP280;15569;42.652;23.040;2024-01-06T13:34:52;92184.59;;;19.22
28305;BMP280;15569;42.652;23.040;2024-01-06T13:37:21;92189.44;;;17.30
28305;BMP280;15569;42.652;23.040;2024-01-06T13:39:48;92187.69;;;16.99
28305;BMP280;15569;42.652;23.040;2024-01-06T13:42:13;92161.25;;;15.76
28305;BMP280;15569;42.652;23.040;2024-01-06T13:44:41;92182.91;;;15.26
28305;BMP280;15569;42.652;23.040;2024-01-06T13:47:07;92191.31;;;15.37
28305;BMP280;15569;42.652;23.040;2024-01-06T13:49:32;92168.44;;;14.86
28305;BMP280;15569;42.652;23.040;2024-01-06T13:51:57;92181.25;;;14.78
28305;BMP280;15569;42.652;23.040;2024-01-06T13:54:23;92182.09;;;14.53
28305;BMP280;15569;42.652;23.040;2024-01-06T13:56:48;92187.56;;;14.23
28305;BMP280;15569;42.652;23.040;2024-01-06T13:59:15;92181.38;;;13.93
28305;BMP280;15569;42.652;23.040;2024-01-06T14:01:40;92181.56;;;14.01